CST,Max TemperatureF,Mean TemperatureF,Min TemperatureF,Max Dew PointF,MeanDew PointF,Min DewpointF,Max Humidity, Mean Humidity, Min Humidity, Max Sea Level PressureIn, Mean Sea Level PressureIn, Min Sea Level PressureIn, Max VisibilityMiles, Mean VisibilityMiles, Min VisibilityMiles, Max Wind SpeedMPH, Mean Wind SpeedMPH, Max Gust SpeedMPH,PrecipitationIn, CloudCover, Events, WindDirDegrees
2012-12-1,69,62,54,53,49,45,77,68,59,30.19,30.12,30.06,10,10,10,17,10,23,0.00,6,,175
2012-12-2,72,65,57,63,58,47,90,79,67,30.15,30.10,30.07,10,10,10,23,12,54,0.00,5,,193
2012-12-3,75,67,58,61,58,53,93,73,53,30.14,30.08,30.00,10,10,7,24,11,33,0.00,5,,186
2012-12-4,69,60,50,61,56,40,100,87,73,30.27,30.13,30.03,10,8,2,22,8,28,0.52,7,Rain-Thunderstorm,266
2012-12-5,61,54,47,42,40,37,71,59,46,30.32,30.23,30.11,10,10,10,20,11,24,0.00,1,,45
2012-12-6,59,52,45,56,47,37,93,80,66,30.10,30.00,29.93,10,9,3,9,4,13,0.00,7,,114
2012-12-7,65,61,56,57,55,53,100,84,67,29.93,29.89,29.83,10,5,0,18,7,22,T,7,Fog-Rain,213
2012-12-8,64,60,55,57,55,51,93,86,78,29.94,29.89,29.86,10,6,2,16,6,20,0.27,8,Rain,68
2012-12-9,68,60,51,63,57,45,93,87,81,29.87,29.81,29.73,10,8,2,28,10,35,0.96,7,Rain-Thunderstorm,259
2012-12-10,51,40,28,41,28,21,78,69,59,30.12,29.96,29.85,10,10,9,22,9,31,T,5,Snow,328
2012-12-11,43,34,24,27,24,21,88,68,48,30.29,30.20,30.13,10,10,10,9,2,12,0.00,0,,248
2012-12-12,49,37,25,31,26,21,92,63,34,30.39,30.34,30.28,10,10,8,7,1,13,0.00,0,,124
2012-12-13,53,40,26,34,29,21,92,68,44,30.41,30.33,30.27,10,10,2,9,2,12,0.00,0,,161
2012-12-14,55,42,28,43,35,26,92,73,54,30.30,30.20,30.03,10,10,10,10,3,13,0.01,1,Rain,145
2012-12-15,63,56,48,60,54,45,93,88,83,30.01,29.84,29.77,10,10,3,26,14,35,0.11,7,Rain,190
2012-12-16,62,57,52,58,54,50,93,81,69,29.80,29.74,29.68,10,10,7,15,8,20,0.00,3,,202
2012-12-17,57,47,36,55,45,32,93,80,66,29.86,29.73,29.66,10,9,5,20,7,26,0.01,5,,253
2012-12-18,61,46,31,44,36,28,92,71,49,29.90,29.87,29.80,10,7,0,22,5,26,0.00,0,Fog,186
2012-12-19,65,52,39,55,46,37,100,78,56,29.93,29.83,29.58,10,9,2,25,9,33,0.00,4,,139
2012-12-20,64,50,35,57,40,18,86,64,41,30.16,29.70,29.45,10,9,1,38,21,53,0.44,6,Rain-Snow-Thunderstorm,247
2012-12-21,49,39,28,22,16,11,75,48,21,30.35,30.29,30.16,10,10,9,22,9,30,0.00,0,Snow,296
2012-12-22,57,41,25,37,27,21,81,60,38,30.34,30.22,30.06,10,10,10,14,6,18,0.00,0,,173
2012-12-23,59,50,41,52,45,32,93,76,58,30.05,29.91,29.81,10,9,0,17,7,23,0.00,6,Fog,189
2012-12-24,55,45,34,54,43,29,100,73,45,30.03,29.87,29.78,10,6,0,24,7,32,0.00,4,Fog-Snow,329
2012-12-25,35,33,30,31,29,25,89,82,75,30.08,29.83,29.65,6,4,1,36,21,49,0.50,7,Rain-Snow-Thunderstorm,31
2012-12-26,36,28,20,30,25,18,100,82,64,30.20,29.96,29.68,10,5,0,23,9,32,0.07,5,Fog-Snow,332
2012-12-27,36,27,18,28,23,16,100,82,64,30.24,30.15,30.07,10,10,9,12,4,13,0.00,1,,60
2012-12-28,36,34,32,35,33,29,100,91,82,30.07,29.93,29.82,10,5,1,13,6,17,0.24,8,Rain,21
2012-12-29,35,30,25,32,23,21,92,77,61,30.42,30.22,29.98,10,9,6,20,7,25,0.00,5,,297
2012-12-30,41,32,22,30,25,20,88,71,54,30.53,30.45,30.34,10,9,5,9,3,12,0.00,0,,204
2012-12-31,41,37,33,39,34,28,100,88,75,30.33,30.16,30.05,10,7,2,14,6,17,0.38,7,Rain,80